الصفحة الرئيسية
METAR-TAF:

METAR-TAF

مطار :

مطار بولكوفو

سانت بطرسبرغ, روسيا

دائرة عرض: 59-58N, خط طول: 030-18E, ارتفاع: 4 متر

مراقبة الطقس الحالي

تاريخ ووقت الإصدار 28 دقيقة قبل الساعة 13:30UTC
ريح 4 عقدة من الشرق
درجة الحرارة 27°درجة مئوية
الرطوبة 39%
ضغط 1013 hPa
الرؤية 10 كم أو أكثر
غيوم قليلة على ارتفاع 4600 قدم, مزن ركامية عمودية.

METAR: ULLI 301330Z 09002MPS 9999 FEW046TCU 27/12 Q1013 R88/090060 NOSIG

زمن: 16:58 (13:58 UTC)

توقعات

تاريخ ووقت الإصدار 3ساعات و 7 دقيقة قبل الساعة 10:51UTC
التوقعات صالحة من30 الساعة 12 UTC إلى 31 الساعة 12 UTC
ريح 6 عقدة من الشرق/الجنوب الشرقي
الرؤية 10 كم أو أكثر
غيوم متفرقة على ارتفاع 3000 قدم
مؤقت
من 30 الساعة 12 UTC إلى 30 الساعة 18 UTC
ريح 29 عقدةمن اتجاهات متغيرة
الرؤية: 3100 متر
غيوم مفككة على ارتفاع 1600 قدم, مزنة ركامية.
عاصفة رعدية, مطر خفيف, برَد, عاصفة مفاجئة,

TAF: ULLI 301051Z 3012/3112 12003MPS 9999 SCT030 TEMPO 3012/3018 VRB15MPS 3100 -TSRAGR SQ BKN016CB

أرصاد الطقس والتوقعات من أكثر من 4000 مطار (تقارير الطقس للمطار METAR والتنبؤ بالطقس بالمطارTAF).

المحطات المتاحة هي النقط الصفراء والحمراء على الخريطة.

حرك المؤشر فوق النقطة لمعرفة اسم المحطة.

ثم انقر لمعرفة أرصاد وتوقعات الطقس.

لتغيير الخارطة: اضغط على الأزرار الخضراء مع رمز الصليب الأسود للتكبير. على الزر الأخضر مع شرطة للتصغير، أو على الأسهم الخضراء للخرائط المجاورة.


METAR-TAF: